sensor_id;sensor_type;location;lat;lon;timestamp;P1;durP1;ratioP1;P2;durP2;ratioP2
72649;SDS011;61467;50.674;4.618;2022-10-22T00:00:21;9.52;;;1.45;;
72649;SDS011;61467;50.674;4.618;2022-10-22T00:02:49;6.05;;;1.85;;
72649;SDS011;61467;50.674;4.618;2022-10-22T00:05:16;8.97;;;2.67;;
72649;SDS011;61467;50.674;4.618;2022-10-22T00:07:42;6.97;;;1.50;;
72649;SDS011;61467;50.674;4.618;2022-10-22T00:10:10;11.50;;;2.10;;
72649;SDS011;61467;50.674;4.618;2022-10-22T00:12:37;9.13;;;2.35;;
72649;SDS011;61467;50.674;4.618;2022-10-22T00:15:04;9.70;;;2.03;;
72649;SDS011;61467;50.674;4.618;2022-10-22T00:17:31;12.50;;;2.00;;
72649;SDS011;61467;50.674;4.618;2022-10-22T00:19:58;8.18;;;2.08;;
72649;SDS011;61467;50.674;4.618;2022-10-22T00:22:25;8.38;;;2.30;;
72649;SDS011;61467;50.674;4.618;2022-10-22T00:24:52;8.38;;;2.38;;
72649;SDS011;61467;50.674;4.618;2022-10-22T00:27:20;10.77;;;2.28;;
72649;SDS011;61467;50.674;4.618;2022-10-22T00:29:47;7.17;;;2.13;;
72649;SDS011;61467;50.674;4.618;2022-10-22T00:32:13;7.10;;;1.75;;
72649;SDS011;61467;50.674;4.618;2022-10-22T00:34:40;9.05;;;1.83;;
72649;SDS011;61467;50.674;4.618;2022-10-22T00:37:07;7.70;;;2.33;;
72649;SDS011;61467;50.674;4.618;2022-10-22T00:39:33;10.93;;;2.28;;
72649;SDS011;61467;50.674;4.618;2022-10-22T00:42:00;8.07;;;2.57;;
72649;SDS011;61467;50.674;4.618;2022-10-22T00:47:29;7.57;;;1.83;;
72649;SDS011;61467;50.674;4.618;2022-10-22T00:49:57;10.52;;;2.10;;
72649;SDS011;61467;50.674;4.618;2022-10-22T00:52:25;7.45;;;1.80;;
72649;SDS011;61467;50.674;4.618;2022-10-22T00:54:53;8.40;;;1.80;;
72649;SDS011;61467;50.674;4.618;2022-10-22T00:57:19;6.05;;;1.70;;
72649;SDS011;61467;50.674;4.618;2022-10-22T00:59:47;6.80;;;2.00;;
72649;SDS011;61467;50.674;4.618;2022-10-22T01:02:14;8.48;;;1.92;;
72649;SDS011;61467;50.674;4.618;2022-10-22T01:04:43;7.63;;;1.98;;
72649;SDS011;61467;50.674;4.618;2022-10-22T01:07:11;9.33;;;2.40;;
72649;SDS011;61467;50.674;4.618;2022-10-22T01:09:43;10.48;;;1.67;;
72649;SDS011;61467;50.674;4.618;2022-10-22T01:12:14;7.63;;;1.95;;
72649;SDS011;61467;50.674;4.618;2022-10-22T01:14:51;10.63;;;2.10;;
72649;SDS011;61467;50.674;4.618;2022-10-22T01:17:29;9.35;;;1.92;;
72649;SDS011;61467;50.674;4.618;2022-10-22T01:20:04;7.60;;;1.80;;
72649;SDS011;61467;50.674;4.618;2022-10-22T01:22:42;10.27;;;1.85;;
72649;SDS011;61467;50.674;4.618;2022-10-22T01:25:19;9.98;;;2.03;;
72649;SDS011;61467;50.674;4.618;2022-10-22T01:27:55;8.90;;;2.47;;
72649;SDS011;61467;50.674;4.618;2022-10-22T01:30:31;11.32;;;2.15;;
72649;SDS011;61467;50.674;4.618;2022-10-22T01:33:02;8.60;;;2.50;;
72649;SDS011;61467;50.674;4.618;2022-10-22T01:35:33;8.73;;;2.13;;
72649;SDS011;61467;50.674;4.618;2022-10-22T01:38:02;9.38;;;2.25;;
72649;SDS011;61467;50.674;4.618;2022-10-22T01:40:31;7.82;;;2.00;;
72649;SDS011;61467;50.674;4.618;2022-10-22T01:43:01;10.13;;;1.92;;
72649;SDS011;61467;50.674;4.618;2022-10-22T01:45:29;7.27;;;1.93;;
72649;SDS011;61467;50.674;4.618;2022-10-22T01:48:04;8.20;;;2.10;;
72649;SDS011;61467;50.674;4.618;2022-10-22T01:50:42;10.30;;;2.25;;
72649;SDS011;61467;50.674;4.618;2022-10-22T01:53:20;7.22;;;1.67;;
72649;SDS011;61467;50.674;4.618;2022-10-22T01:56:00;10.23;;;2.30;;
72649;SDS011;61467;50.674;4.618;2022-10-22T01:58:41;7.80;;;2.10;;
72649;SDS011;61467;50.674;4.618;2022-10-22T02:01:18;10.93;;;2.17;;
72649;SDS011;61467;50.674;4.618;2022-10-22T02:03:51;8.18;;;2.45;;
72649;SDS011;61467;50.674;4.618;2022-10-22T02:06:24;7.68;;;2.15;;
72649;SDS011;61467;50.674;4.618;2022-10-22T02:08:53;8.02;;;2.08;;
72649;SDS011;61467;50.674;4.618;2022-10-22T02:11:21;11.57;;;2.13;;
72649;SDS011;61467;50.674;4.618;2022-10-22T02:13:48;8.13;;;1.90;;
72649;SDS011;61467;50.674;4.618;2022-10-22T02:16:20;8.88;;;1.70;;
72649;SDS011;61467;50.674;4.618;2022-10-22T02:18:52;8.85;;;2.25;;
72649;SDS011;61467;50.674;4.618;2022-10-22T02:21:21;9.88;;;2.35;;
72649;SDS011;61467;50.674;4.618;2022-10-22T02:23:48;7.77;;;2.00;;
72649;SDS011;61467;50.674;4.618;2022-10-22T02:26:15;8.75;;;2.53;;
72649;SDS011;61467;50.674;4.618;2022-10-22T02:28:49;9.73;;;1.83;;
72649;SDS011;61467;50.674;4.618;2022-10-22T02:31:25;8.65;;;2.35;;
72649;SDS011;61467;50.674;4.618;2022-10-22T02:33:54;8.32;;;1.70;;
72649;SDS011;61467;50.674;4.618;2022-10-22T02:36:23;7.33;;;2.03;;
72649;SDS011;61467;50.674;4.618;2022-10-22T02:38:50;8.30;;;1.77;;
72649;SDS011;61467;50.674;4.618;2022-10-22T02:41:17;7.63;;;2.08;;
72649;SDS011;61467;50.674;4.618;2022-10-22T02:43:49;11.15;;;2.15;;
72649;SDS011;61467;50.674;4.618;2022-10-22T02:46:18;7.50;;;2.10;;
72649;SDS011;61467;50.674;4.618;2022-10-22T02:48:46;10.60;;;2.47;;
72649;SDS011;61467;50.674;4.618;2022-10-22T02:51:13;9.07;;;1.75;;
72649;SDS011;61467;50.674;4.618;2022-10-22T02:53:40;6.13;;;1.67;;
72649;SDS011;61467;50.674;4.618;2022-10-22T02:56:07;7.30;;;2.05;;
72649;SDS011;61467;50.674;4.618;2022-10-22T02:58:33;8.05;;;2.20;;
72649;SDS011;61467;50.674;4.618;2022-10-22T03:01:00;7.63;;;1.87;;
72649;SDS011;61467;50.674;4.618;2022-10-22T03:03:27;9.95;;;2.10;;
72649;SDS011;61467;50.674;4.618;2022-10-22T03:05:55;8.18;;;1.95;;
72649;SDS011;61467;50.674;4.618;2022-10-22T03:08:21;10.00;;;2.10;;
72649;SDS011;61467;50.674;4.618;2022-10-22T03:10:48;6.10;;;1.98;;
72649;SDS011;61467;50.674;4.618;2022-10-22T03:13:14;6.73;;;1.87;;
72649;SDS011;61467;50.674;4.618;2022-10-22T03:15:41;8.75;;;2.00;;
72649;SDS011;61467;50.674;4.618;2022-10-22T03:18:08;6.45;;;1.95;;
72649;SDS011;61467;50.674;4.618;2022-10-22T03:20:34;10.27;;;1.73;;
72649;SDS011;61467;50.674;4.618;2022-10-22T03:23:02;8.50;;;1.67;;
72649;SDS011;61467;50.674;4.618;2022-10-22T03:25:29;5.83;;;1.90;;
72649;SDS011;61467;50.674;4.618;2022-10-22T03:27:59;6.45;;;1.30;;
72649;SDS011;61467;50.674;4.618;2022-10-22T03:30:28;8.73;;;1.90;;
72649;SDS011;61467;50.674;4.618;2022-10-22T03:32:55;6.15;;;1.70;;
72649;SDS011;61467;50.674;4.618;2022-10-22T03:35:22;7.07;;;2.08;;
72649;SDS011;61467;50.674;4.618;2022-10-22T03:37:48;8.43;;;1.80;;
72649;SDS011;61467;50.674;4.618;2022-10-22T03:40:17;8.85;;;1.67;;
72649;SDS011;61467;50.674;4.618;2022-10-22T03:42:44;6.60;;;1.95;;
72649;SDS011;61467;50.674;4.618;2022-10-22T03:45:11;6.72;;;1.55;;
72649;SDS011;61467;50.674;4.618;2022-10-22T03:47:38;6.82;;;1.75;;
72649;SDS011;61467;50.674;4.618;2022-10-22T03:50:05;11.60;;;2.03;;
72649;SDS011;61467;50.674;4.618;2022-10-22T03:52:34;8.00;;;1.90;;
72649;SDS011;61467;50.674;4.618;2022-10-22T03:55:02;10.15;;;1.77;;
72649;SDS011;61467;50.674;4.618;2022-10-22T03:57:31;7.15;;;1.88;;
72649;SDS011;61467;50.674;4.618;2022-10-22T03:59:57;9.73;;;1.95;;
72649;SDS011;61467;50.674;4.618;2022-10-22T04:02:24;5.83;;;1.97;;
72649;SDS011;61467;50.674;4.618;2022-10-22T04:04:51;7.93;;;2.00;;
72649;SDS011;61467;50.674;4.618;2022-10-22T04:07:18;8.30;;;1.92;;
72649;SDS011;61467;50.674;4.618;2022-10-22T04:09:44;9.77;;;2.22;;
72649;SDS011;61467;50.674;4.618;2022-10-22T04:12:11;7.72;;;1.88;;
72649;SDS011;61467;50.674;4.618;2022-10-22T04:14:39;7.60;;;1.80;;
72649;SDS011;61467;50.674;4.618;2022-10-22T04:17:07;7.13;;;1.80;;
72649;SDS011;61467;50.674;4.618;2022-10-22T04:19:34;7.05;;;1.40;;
72649;SDS011;61467;50.674;4.618;2022-10-22T04:22:00;8.60;;;1.50;;
72649;SDS011;61467;50.674;4.618;2022-10-22T04:24:28;6.90;;;1.60;;
72649;SDS011;61467;50.674;4.618;2022-10-22T04:26:55;7.87;;;1.60;;
72649;SDS011;61467;50.674;4.618;2022-10-22T04:29:22;11.35;;;2.00;;
72649;SDS011;61467;50.674;4.618;2022-10-22T04:31:50;8.50;;;1.77;;
72649;SDS011;61467;50.674;4.618;2022-10-22T04:34:17;7.07;;;1.40;;
72649;SDS011;61467;50.674;4.618;2022-10-22T04:36:43;7.28;;;1.60;;
72649;SDS011;61467;50.674;4.618;2022-10-22T04:39:10;11.47;;;1.87;;
72649;SDS011;61467;50.674;4.618;2022-10-22T04:41:37;11.98;;;1.67;;
72649;SDS011;61467;50.674;4.618;2022-10-22T04:44:05;9.18;;;1.48;;
72649;SDS011;61467;50.674;4.618;2022-10-22T04:46:32;7.50;;;1.35;;
72649;SDS011;61467;50.674;4.618;2022-10-22T04:49:01;6.35;;;1.30;;
72649;SDS011;61467;50.674;4.618;2022-10-22T04:51:28;9.87;;;1.60;;
72649;SDS011;61467;50.674;4.618;2022-10-22T04:53:55;6.72;;;1.27;;
72649;SDS011;61467;50.674;4.618;2022-10-22T04:56:22;8.85;;;1.80;;
72649;SDS011;61467;50.674;4.618;2022-10-22T04:58:52;8.23;;;1.35;;
72649;SDS011;61467;50.674;4.618;2022-10-22T05:01:20;8.55;;;1.63;;
72649;SDS011;61467;50.674;4.618;2022-10-22T05:03:49;10.90;;;1.60;;
72649;SDS011;61467;50.674;4.618;2022-10-22T05:06:18;9.07;;;1.80;;
72649;SDS011;61467;50.674;4.618;2022-10-22T05:08:46;9.35;;;1.80;;
72649;SDS011;61467;50.674;4.618;2022-10-22T05:11:14;8.82;;;1.60;;
72649;SDS011;61467;50.674;4.618;2022-10-22T05:13:42;7.03;;;1.70;;
72649;SDS011;61467;50.674;4.618;2022-10-22T05:16:09;8.70;;;1.87;;
72649;SDS011;61467;50.674;4.618;2022-10-22T05:18:36;11.88;;;1.88;;
72649;SDS011;61467;50.674;4.618;2022-10-22T05:21:04;10.50;;;1.50;;
72649;SDS011;61467;50.674;4.618;2022-10-22T05:23:34;10.02;;;1.48;;
72649;SDS011;61467;50.674;4.618;2022-10-22T05:26:02;8.88;;;1.45;;
72649;SDS011;61467;50.674;4.618;2022-10-22T05:28:28;5.97;;;1.50;;
72649;SDS011;61467;50.674;4.618;2022-10-22T05:30:56;6.78;;;1.80;;
72649;SDS011;61467;50.674;4.618;2022-10-22T05:33:23;8.60;;;1.42;;
72649;SDS011;61467;50.674;4.618;2022-10-22T05:35:51;6.80;;;1.10;;
72649;SDS011;61467;50.674;4.618;2022-10-22T05:38:17;10.23;;;1.98;;
72649;SDS011;61467;50.674;4.618;2022-10-22T05:40:46;9.93;;;1.50;;
72649;SDS011;61467;50.674;4.618;2022-10-22T05:43:13;8.77;;;1.50;;
72649;SDS011;61467;50.674;4.618;2022-10-22T05:45:40;8.45;;;1.20;;
72649;SDS011;61467;50.674;4.618;2022-10-22T05:48:08;11.02;;;1.40;;
72649;SDS011;61467;50.674;4.618;2022-10-22T05:50:35;6.75;;;1.15;;
72649;SDS011;61467;50.674;4.618;2022-10-22T05:53:03;8.93;;;1.20;;
72649;SDS011;61467;50.674;4.618;2022-10-22T05:55:33;12.45;;;1.70;;
72649;SDS011;61467;50.674;4.618;2022-10-22T05:58:02;10.73;;;1.45;;
72649;SDS011;61467;50.674;4.618;2022-10-22T06:00:29;10.35;;;1.42;;
72649;SDS011;61467;50.674;4.618;2022-10-22T06:02:56;8.35;;;1.20;;
72649;SDS011;61467;50.674;4.618;2022-10-22T06:05:22;7.60;;;1.43;;
72649;SDS011;61467;50.674;4.618;2022-10-22T06:07:49;8.63;;;1.50;;
72649;SDS011;61467;50.674;4.618;2022-10-22T06:10:17;6.38;;;2.10;;
72649;SDS011;61467;50.674;4.618;2022-10-22T06:12:46;7.53;;;1.25;;
72649;SDS011;61467;50.674;4.618;2022-10-22T06:15:15;8.77;;;2.03;;
72649;SDS011;61467;50.674;4.618;2022-10-22T06:17:44;9.40;;;1.70;;
72649;SDS011;61467;50.674;4.618;2022-10-22T06:20:11;5.75;;;1.10;;
72649;SDS011;61467;50.674;4.618;2022-10-22T06:22:38;6.32;;;1.10;;
72649;SDS011;61467;50.674;4.618;2022-10-22T06:25:05;8.20;;;1.38;;
72649;SDS011;61467;50.674;4.618;2022-10-22T06:27:33;4.85;;;1.25;;
72649;SDS011;61467;50.674;4.618;2022-10-22T06:30:00;8.60;;;1.40;;
72649;SDS011;61467;50.674;4.618;2022-10-22T06:32:28;7.78;;;1.23;;
72649;SDS011;61467;50.674;4.618;2022-10-22T06:34:55;6.35;;;1.20;;
72649;SDS011;61467;50.674;4.618;2022-10-22T06:37:22;7.53;;;1.20;;
72649;SDS011;61467;50.674;4.618;2022-10-22T06:39:48;9.43;;;1.30;;
72649;SDS011;61467;50.674;4.618;2022-10-22T06:42:15;6.43;;;1.20;;
72649;SDS011;61467;50.674;4.618;2022-10-22T06:44:42;7.20;;;1.05;;
72649;SDS011;61467;50.674;4.618;2022-10-22T06:47:08;7.72;;;1.20;;
72649;SDS011;61467;50.674;4.618;2022-10-22T06:49:36;7.55;;;1.35;;
72649;SDS011;61467;50.674;4.618;2022-10-22T06:52:03;6.07;;;1.15;;
72649;SDS011;61467;50.674;4.618;2022-10-22T06:54:30;7.03;;;1.10;;
72649;SDS011;61467;50.674;4.618;2022-10-22T06:56:56;6.07;;;1.38;;
72649;SDS011;61467;50.674;4.618;2022-10-22T06:59:23;6.38;;;1.00;;
72649;SDS011;61467;50.674;4.618;2022-10-22T07:01:50;9.35;;;1.58;;
72649;SDS011;61467;50.674;4.618;2022-10-22T07:04:16;6.70;;;1.00;;
72649;SDS011;61467;50.674;4.618;2022-10-22T07:06:45;6.97;;;1.17;;
72649;SDS011;61467;50.674;4.618;2022-10-22T07:09:11;6.97;;;1.00;;
72649;SDS011;61467;50.674;4.618;2022-10-22T07:11:38;6.70;;;0.90;;
72649;SDS011;61467;50.674;4.618;2022-10-22T07:14:07;6.22;;;0.90;;
72649;SDS011;61467;50.674;4.618;2022-10-22T07:16:34;7.40;;;1.27;;
72649;SDS011;61467;50.674;4.618;2022-10-22T07:19:02;4.87;;;0.83;;
72649;SDS011;61467;50.674;4.618;2022-10-22T07:21:30;7.47;;;1.08;;
72649;SDS011;61467;50.674;4.618;2022-10-22T07:23:59;12.02;;;1.67;;
72649;SDS011;61467;50.674;4.618;2022-10-22T07:26:26;8.32;;;1.05;;
72649;SDS011;61467;50.674;4.618;2022-10-22T07:28:54;8.18;;;1.20;;
72649;SDS011;61467;50.674;4.618;2022-10-22T07:31:21;10.20;;;1.50;;
72649;SDS011;61467;50.674;4.618;2022-10-22T07:33:48;7.20;;;1.20;;
72649;SDS011;61467;50.674;4.618;2022-10-22T07:36:15;7.80;;;0.98;;
72649;SDS011;61467;50.674;4.618;2022-10-22T07:38:42;8.55;;;1.80;;
72649;SDS011;61467;50.674;4.618;2022-10-22T07:41:11;6.70;;;1.08;;
72649;SDS011;61467;50.674;4.618;2022-10-22T07:43:39;6.27;;;1.10;;
72649;SDS011;61467;50.674;4.618;2022-10-22T07:46:05;5.90;;;1.00;;
72649;SDS011;61467;50.674;4.618;2022-10-22T07:48:33;6.75;;;1.75;;
72649;SDS011;61467;50.674;4.618;2022-10-22T07:51:03;9.05;;;1.48;;
72649;SDS011;61467;50.674;4.618;2022-10-22T07:53:30;6.78;;;1.13;;
72649;SDS011;61467;50.674;4.618;2022-10-22T07:55:57;6.83;;;1.50;;
72649;SDS011;61467;50.674;4.618;2022-10-22T07:58:25;6.57;;;1.15;;
72649;SDS011;61467;50.674;4.618;2022-10-22T08:00:53;6.95;;;1.20;;
72649;SDS011;61467;50.674;4.618;2022-10-22T08:03:21;7.25;;;1.33;;
72649;SDS011;61467;50.674;4.618;2022-10-22T08:05:48;6.70;;;1.50;;
72649;SDS011;61467;50.674;4.618;2022-10-22T08:08:15;8.23;;;1.00;;
72649;SDS011;61467;50.674;4.618;2022-10-22T08:10:42;7.18;;;1.20;;
72649;SDS011;61467;50.674;4.618;2022-10-22T08:13:09;7.28;;;1.40;;
72649;SDS011;61467;50.674;4.618;2022-10-22T08:15:40;8.77;;;1.35;;
72649;SDS011;61467;50.674;4.618;2022-10-22T08:18:07;6.90;;;1.00;;
72649;SDS011;61467;50.674;4.618;2022-10-22T08:20:34;8.67;;;1.20;;
72649;SDS011;61467;50.674;4.618;2022-10-22T08:23:01;7.30;;;1.10;;
72649;SDS011;61467;50.674;4.618;2022-10-22T08:25:27;8.30;;;1.00;;
72649;SDS011;61467;50.674;4.618;2022-10-22T08:27:54;6.38;;;1.00;;
72649;SDS011;61467;50.674;4.618;2022-10-22T08:30:21;9.05;;;1.08;;
72649;SDS011;61467;50.674;4.618;2022-10-22T08:32:49;10.90;;;1.27;;
72649;SDS011;61467;50.674;4.618;2022-10-22T08:35:16;6.65;;;1.33;;
72649;SDS011;61467;50.674;4.618;2022-10-22T08:37:42;8.48;;;1.15;;
72649;SDS011;61467;50.674;4.618;2022-10-22T08:40:09;7.00;;;1.25;;
72649;SDS011;61467;50.674;4.618;2022-10-22T08:42:49;5.85;;;1.08;;
72649;SDS011;61467;50.674;4.618;2022-10-22T08:45:32;10.23;;;1.30;;
72649;SDS011;61467;50.674;4.618;2022-10-22T08:48:07;5.68;;;1.25;;
72649;SDS011;61467;50.674;4.618;2022-10-22T08:50:41;5.47;;;1.00;;
72649;SDS011;61467;50.674;4.618;2022-10-22T08:53:11;7.43;;;1.15;;
72649;SDS011;61467;50.674;4.618;2022-10-22T08:55:39;7.30;;;1.60;;
72649;SDS011;61467;50.674;4.618;2022-10-22T08:58:08;8.70;;;1.40;;
72649;SDS011;61467;50.674;4.618;2022-10-22T09:00:43;6.30;;;1.48;;
72649;SDS011;61467;50.674;4.618;2022-10-22T09:03:22;7.65;;;1.67;;
72649;SDS011;61467;50.674;4.618;2022-10-22T09:05:55;8.23;;;1.10;;
72649;SDS011;61467;50.674;4.618;2022-10-22T09:08:28;6.57;;;1.20;;
72649;SDS011;61467;50.674;4.618;2022-10-22T09:11:00;6.50;;;1.73;;
72649;SDS011;61467;50.674;4.618;2022-10-22T09:13:30;8.65;;;1.60;;
72649;SDS011;61467;50.674;4.618;2022-10-22T09:15:59;5.65;;;1.20;;
72649;SDS011;61467;50.674;4.618;2022-10-22T09:18:39;8.27;;;1.20;;
72649;SDS011;61467;50.674;4.618;2022-10-22T09:21:13;8.63;;;1.35;;
72649;SDS011;61467;50.674;4.618;2022-10-22T09:23:52;6.17;;;1.40;;
72649;SDS011;61467;50.674;4.618;2022-10-22T09:26:26;9.18;;;1.45;;
72649;SDS011;61467;50.674;4.618;2022-10-22T09:28:52;9.60;;;1.52;;
72649;SDS011;61467;50.674;4.618;2022-10-22T09:31:19;7.07;;;1.33;;
72649;SDS011;61467;50.674;4.618;2022-10-22T09:33:49;7.13;;;1.25;;
72649;SDS011;61467;50.674;4.618;2022-10-22T09:36:17;8.13;;;2.13;;
72649;SDS011;61467;50.674;4.618;2022-10-22T09:38:47;5.78;;;1.02;;
72649;SDS011;61467;50.674;4.618;2022-10-22T09:41:15;8.30;;;1.10;;
72649;SDS011;61467;50.674;4.618;2022-10-22T09:43:45;7.50;;;1.38;;
72649;SDS011;61467;50.674;4.618;2022-10-22T09:46:14;9.85;;;1.20;;
72649;SDS011;61467;50.674;4.618;2022-10-22T09:48:43;8.63;;;1.13;;
72649;SDS011;61467;50.674;4.618;2022-10-22T09:51:17;7.00;;;1.20;;
72649;SDS011;61467;50.674;4.618;2022-10-22T09:53:45;7.82;;;1.02;;
72649;SDS011;61467;50.674;4.618;2022-10-22T09:56:22;12.15;;;1.38;;
72649;SDS011;61467;50.674;4.618;2022-10-22T09:58:51;7.00;;;1.30;;
72649;SDS011;61467;50.674;4.618;2022-10-22T10:01:18;10.57;;;1.53;;
72649;SDS011;61467;50.674;4.618;2022-10-22T10:03:50;9.32;;;1.58;;
72649;SDS011;61467;50.674;4.618;2022-10-22T10:06:17;8.00;;;1.33;;
72649;SDS011;61467;50.674;4.618;2022-10-22T10:08:44;6.95;;;1.50;;
72649;SDS011;61467;50.674;4.618;2022-10-22T10:11:13;12.00;;;2.00;;
72649;SDS011;61467;50.674;4.618;2022-10-22T10:13:51;9.10;;;1.53;;
72649;SDS011;61467;50.674;4.618;2022-10-22T10:16:31;8.93;;;1.30;;
72649;SDS011;61467;50.674;4.618;2022-10-22T10:21:56;5.20;;;0.90;;
72649;SDS011;61467;50.674;4.618;2022-10-22T10:24:32;9.70;;;1.33;;
72649;SDS011;61467;50.674;4.618;2022-10-22T10:27:14;7.27;;;1.80;;
72649;SDS011;61467;50.674;4.618;2022-10-22T10:29:48;8.75;;;1.60;;
72649;SDS011;61467;50.674;4.618;2022-10-22T10:32:28;6.65;;;1.08;;
72649;SDS011;61467;50.674;4.618;2022-10-22T10:35:11;6.75;;;1.48;;
72649;SDS011;61467;50.674;4.618;2022-10-22T10:37:45;5.90;;;1.33;;
72649;SDS011;61467;50.674;4.618;2022-10-22T10:40:23;11.13;;;1.87;;
72649;SDS011;61467;50.674;4.618;2022-10-22T10:42:54;7.80;;;1.13;;
72649;SDS011;61467;50.674;4.618;2022-10-22T10:45:27;9.88;;;1.38;;
72649;SDS011;61467;50.674;4.618;2022-10-22T10:48:09;6.90;;;1.30;;
72649;SDS011;61467;50.674;4.618;2022-10-22T10:50:53;6.78;;;1.30;;
72649;SDS011;61467;50.674;4.618;2022-10-22T10:53:32;7.23;;;1.23;;
72649;SDS011;61467;50.674;4.618;2022-10-22T10:56:18;7.03;;;1.35;;
72649;SDS011;61467;50.674;4.618;2022-10-22T10:58:56;5.18;;;1.23;;
72649;SDS011;61467;50.674;4.618;2022-10-22T11:01:32;6.53;;;1.20;;
72649;SDS011;61467;50.674;4.618;2022-10-22T11:04:19;5.80;;;1.13;;
72649;SDS011;61467;50.674;4.618;2022-10-22T11:07:01;7.33;;;1.10;;
72649;SDS011;61467;50.674;4.618;2022-10-22T11:09:33;9.63;;;1.83;;
72649;SDS011;61467;50.674;4.618;2022-10-22T11:12:03;6.22;;;1.25;;
72649;SDS011;61467;50.674;4.618;2022-10-22T11:14:37;7.50;;;0.95;;
72649;SDS011;61467;50.674;4.618;2022-10-22T11:17:12;8.25;;;1.08;;
72649;SDS011;61467;50.674;4.618;2022-10-22T11:19:42;6.00;;;1.40;;
72649;SDS011;61467;50.674;4.618;2022-10-22T11:22:12;7.30;;;1.30;;
72649;SDS011;61467;50.674;4.618;2022-10-22T11:24:45;8.07;;;1.65;;
72649;SDS011;61467;50.674;4.618;2022-10-22T11:27:20;7.32;;;1.80;;
72649;SDS011;61467;50.674;4.618;2022-10-22T11:29:53;7.25;;;1.25;;
72649;SDS011;61467;50.674;4.618;2022-10-22T11:32:23;7.03;;;0.80;;
72649;SDS011;61467;50.674;4.618;2022-10-22T11:34:53;5.63;;;0.98;;
72649;SDS011;61467;50.674;4.618;2022-10-22T11:37:23;4.90;;;1.10;;
72649;SDS011;61467;50.674;4.618;2022-10-22T11:39:52;5.05;;;0.88;;
72649;SDS011;61467;50.674;4.618;2022-10-22T11:42:20;10.55;;;1.38;;
72649;SDS011;61467;50.674;4.618;2022-10-22T11:44:57;6.33;;;0.90;;
72649;SDS011;61467;50.674;4.618;2022-10-22T11:47:26;7.65;;;1.08;;
72649;SDS011;61467;50.674;4.618;2022-10-22T11:49:55;7.47;;;1.02;;
72649;SDS011;61467;50.674;4.618;2022-10-22T11:52:26;9.45;;;1.20;;
72649;SDS011;61467;50.674;4.618;2022-10-22T11:55:28;7.75;;;1.25;;
72649;SDS011;61467;50.674;4.618;2022-10-22T11:57:58;6.47;;;1.10;;
72649;SDS011;61467;50.674;4.618;2022-10-22T12:00:33;4.57;;;0.77;;
72649;SDS011;61467;50.674;4.618;2022-10-22T12:03:14;6.35;;;0.85;;
72649;SDS011;61467;50.674;4.618;2022-10-22T12:05:42;9.00;;;1.23;;
72649;SDS011;61467;50.674;4.618;2022-10-22T12:08:21;8.02;;;1.50;;
72649;SDS011;61467;50.674;4.618;2022-10-22T12:13:52;6.22;;;0.82;;
72649;SDS011;61467;50.674;4.618;2022-10-22T12:16:24;6.25;;;1.00;;
72649;SDS011;61467;50.674;4.618;2022-10-22T12:18:54;7.43;;;0.93;;
72649;SDS011;61467;50.674;4.618;2022-10-22T12:21:25;6.00;;;1.00;;
72649;SDS011;61467;50.674;4.618;2022-10-22T12:23:53;7.87;;;1.17;;
72649;SDS011;61467;50.674;4.618;2022-10-22T12:26:24;5.70;;;1.13;;
72649;SDS011;61467;50.674;4.618;2022-10-22T12:28:55;6.55;;;1.15;;
72649;SDS011;61467;50.674;4.618;2022-10-22T12:31:23;6.43;;;1.13;;
72649;SDS011;61467;50.674;4.618;2022-10-22T12:33:54;4.75;;;0.77;;
72649;SDS011;61467;50.674;4.618;2022-10-22T12:36:22;5.27;;;0.90;;
72649;SDS011;61467;50.674;4.618;2022-10-22T12:38:51;6.70;;;1.30;;
72649;SDS011;61467;50.674;4.618;2022-10-22T12:41:20;6.45;;;1.23;;
72649;SDS011;61467;50.674;4.618;2022-10-22T12:43:47;4.78;;;0.85;;
72649;SDS011;61467;50.674;4.618;2022-10-22T12:46:14;6.68;;;1.00;;
72649;SDS011;61467;50.674;4.618;2022-10-22T12:48:42;5.40;;;1.10;;
72649;SDS011;61467;50.674;4.618;2022-10-22T12:51:12;8.57;;;0.90;;
72649;SDS011;61467;50.674;4.618;2022-10-22T12:53:44;8.20;;;1.15;;
72649;SDS011;61467;50.674;4.618;2022-10-22T12:56:13;5.28;;;1.30;;
72649;SDS011;61467;50.674;4.618;2022-10-22T12:58:46;6.30;;;1.00;;
72649;SDS011;61467;50.674;4.618;2022-10-22T13:01:16;6.90;;;1.27;;
72649;SDS011;61467;50.674;4.618;2022-10-22T13:03:45;6.22;;;1.00;;
72649;SDS011;61467;50.674;4.618;2022-10-22T13:06:22;7.00;;;0.95;;
72649;SDS011;61467;50.674;4.618;2022-10-22T13:09:05;6.32;;;1.10;;
72649;SDS011;61467;50.674;4.618;2022-10-22T13:11:38;4.95;;;0.88;;
72649;SDS011;61467;50.674;4.618;2022-10-22T13:14:17;6.17;;;0.73;;
72649;SDS011;61467;50.674;4.618;2022-10-22T13:19:38;6.43;;;0.98;;
72649;SDS011;61467;50.674;4.618;2022-10-22T13:22:26;3.67;;;0.73;;
72649;SDS011;61467;50.674;4.618;2022-10-22T13:24:58;6.18;;;1.10;;
72649;SDS011;61467;50.674;4.618;2022-10-22T13:27:29;6.17;;;0.87;;
72649;SDS011;61467;50.674;4.618;2022-10-22T13:29:59;6.43;;;0.90;;
72649;SDS011;61467;50.674;4.618;2022-10-22T13:32:35;6.68;;;1.08;;
72649;SDS011;61467;50.674;4.618;2022-10-22T13:35:04;7.80;;;1.30;;
72649;SDS011;61467;50.674;4.618;2022-10-22T13:37:31;6.63;;;1.13;;
72649;SDS011;61467;50.674;4.618;2022-10-22T13:39:59;5.50;;;0.93;;
72649;SDS011;61467;50.674;4.618;2022-10-22T13:42:26;5.35;;;0.80;;
72649;SDS011;61467;50.674;4.618;2022-10-22T13:44:54;5.57;;;0.75;;
72649;SDS011;61467;50.674;4.618;2022-10-22T13:47:24;6.28;;;0.80;;
72649;SDS011;61467;50.674;4.618;2022-10-22T13:49:53;5.88;;;1.50;;
72649;SDS011;61467;50.674;4.618;2022-10-22T13:52:26;4.30;;;0.87;;
72649;SDS011;61467;50.674;4.618;2022-10-22T13:54:56;6.35;;;1.08;;
72649;SDS011;61467;50.674;4.618;2022-10-22T13:57:23;6.13;;;0.82;;
72649;SDS011;61467;50.674;4.618;2022-10-22T13:59:49;5.35;;;1.00;;
72649;SDS011;61467;50.674;4.618;2022-10-22T14:02:16;7.05;;;1.23;;
72649;SDS011;61467;50.674;4.618;2022-10-22T14:04:45;5.77;;;1.00;;
72649;SDS011;61467;50.674;4.618;2022-10-22T14:07:12;5.80;;;0.93;;
72649;SDS011;61467;50.674;4.618;2022-10-22T14:09:40;5.90;;;1.45;;
72649;SDS011;61467;50.674;4.618;2022-10-22T14:12:11;6.00;;;1.05;;
72649;SDS011;61467;50.674;4.618;2022-10-22T14:14:38;4.75;;;1.00;;
72649;SDS011;61467;50.674;4.618;2022-10-22T14:17:05;6.03;;;1.20;;
72649;SDS011;61467;50.674;4.618;2022-10-22T14:19:34;7.30;;;1.10;;
72649;SDS011;61467;50.674;4.618;2022-10-22T14:22:02;6.95;;;1.27;;
72649;SDS011;61467;50.674;4.618;2022-10-22T14:24:29;7.55;;;1.23;;
72649;SDS011;61467;50.674;4.618;2022-10-22T14:26:55;7.55;;;1.20;;
72649;SDS011;61467;50.674;4.618;2022-10-22T14:29:22;7.23;;;1.10;;
72649;SDS011;61467;50.674;4.618;2022-10-22T14:31:49;7.53;;;1.35;;
72649;SDS011;61467;50.674;4.618;2022-10-22T14:34:16;7.28;;;0.85;;
72649;SDS011;61467;50.674;4.618;2022-10-22T14:36:43;9.48;;;1.17;;
72649;SDS011;61467;50.674;4.618;2022-10-22T14:39:11;5.55;;;1.02;;
72649;SDS011;61467;50.674;4.618;2022-10-22T14:41:38;7.07;;;1.30;;
72649;SDS011;61467;50.674;4.618;2022-10-22T14:44:05;7.05;;;1.13;;
72649;SDS011;61467;50.674;4.618;2022-10-22T14:46:36;7.10;;;1.10;;
72649;SDS011;61467;50.674;4.618;2022-10-22T14:49:04;8.40;;;1.05;;
72649;SDS011;61467;50.674;4.618;2022-10-22T14:51:30;7.55;;;1.30;;
72649;SDS011;61467;50.674;4.618;2022-10-22T14:53:57;5.77;;;1.27;;
72649;SDS011;61467;50.674;4.618;2022-10-22T14:56:25;5.32;;;0.98;;
72649;SDS011;61467;50.674;4.618;2022-10-22T14:58:51;10.25;;;1.33;;
72649;SDS011;61467;50.674;4.618;2022-10-22T15:01:18;7.50;;;1.38;;
72649;SDS011;61467;50.674;4.618;2022-10-22T15:03:45;8.35;;;1.75;;
72649;SDS011;61467;50.674;4.618;2022-10-22T15:06:11;10.93;;;1.97;;
72649;SDS011;61467;50.674;4.618;2022-10-22T15:08:38;8.70;;;1.75;;
72649;SDS011;61467;50.674;4.618;2022-10-22T15:11:05;8.32;;;1.48;;